Time;durP1;ratioP1;P1;durP2;ratioP2;P2;SDS_P1;SDS_P2;PMS_P1;PMS_P2;Temp;Humidity;BMP_temperature;BMP_pressure;BME280_temperature;BME280_humidity;BME280_pressure;Samples;Min_cycle;Max_cycle;Signal;HPM_P1;HPM_P2
2021/12/16 00:08:36;;;;;;;3.20;1.98;;;;;;;19.34;55.71;98254.97;10367428;28;20038;-22
2021/12/16 00:34:46;;;;;;;4.22;2.22;;;;;;;19.28;55.93;98254.84;10365210;28;20042;-22
2021/12/16 00:39:47;;;;;;;5.45;2.00;;;;;;;19.28;55.85;98254.84;10364912;28;20359;-22
2021/12/16 00:45:05;;;;;;;4.32;1.92;;;;;;;19.27;55.68;98253.97;10364710;28;20533;-22
2021/12/16 00:50:22;;;;;;;3.05;1.65;;;;;;;19.28;55.90;98260.78;10358718;28;20021;-22
2021/12/16 00:55:41;;;;;;;4.07;2.13;;;;;;;19.28;55.71;98248.09;10360877;28;20500;-23
2021/12/16 01:00:50;;;;;;;3.25;1.73;;;;;;;19.27;55.71;98246.34;10365768;28;20486;-22
2021/12/16 01:59:39;;;;;;;3.63;1.70;;;;;;;19.24;55.72;98276.75;10372251;28;20026;-22
2021/12/16 02:05:07;;;;;;;3.20;1.40;;;;;;;19.22;55.65;98282.63;10360875;28;20129;-22
2021/12/16 02:10:03;;;;;;;3.38;1.50;;;;;;;19.20;55.73;98266.50;10364561;28;20034;-22
2021/12/16 02:36:30;;;;;;;2.15;1.20;;;;;;;19.24;55.50;98253.06;10361952;28;20037;-23
2021/12/16 02:41:30;;;;;;;3.42;1.88;;;;;;;19.26;55.34;98251.41;10361634;28;20497;-22
2021/12/16 02:51:51;;;;;;;3.00;1.10;;;;;;;19.27;55.54;98255.66;10356057;28;20155;-22
2021/12/16 02:56:52;;;;;;;1.60;1.15;;;;;;;19.24;55.51;98251.38;10359607;28;20113;-22
2021/12/16 03:01:55;;;;;;;3.20;1.52;;;;;;;19.26;55.37;98252.25;10369951;28;20041;-22
2021/12/16 03:06:59;;;;;;;2.35;1.20;;;;;;;19.25;55.26;98247.16;10369558;28;20505;-22
2021/12/16 03:17:20;;;;;;;1.60;1.17;;;;;;;19.27;55.31;98242.97;10370671;28;20026;-23
2021/12/16 03:22:46;;;;;;;2.53;1.30;;;;;;;19.26;55.01;98242.09;10368320;28;20083;-22
2021/12/16 03:33:29;;;;;;;2.15;1.20;;;;;;;19.23;55.26;98244.59;10366377;28;20034;-23
2021/12/16 03:38:36;;;;;;;2.38;1.48;;;;;;;19.20;55.24;98247.06;10361518;28;20049;-22
2021/12/16 03:43:38;;;;;;;1.95;1.20;;;;;;;19.22;55.22;98247.06;10365244;28;20108;-22
2021/12/16 03:49:01;;;;;;;1.55;1.23;;;;;;;19.21;55.08;98242.84;10370036;28;20941;-22
2021/12/16 03:54:13;;;;;;;2.65;1.40;;;;;;;19.22;55.22;98252.16;10360099;28;20033;-22
2021/12/16 03:59:23;;;;;;;2.58;1.38;;;;;;;19.20;55.27;98246.19;10368007;28;20034;-23
2021/12/16 04:04:43;;;;;;;1.65;1.20;;;;;;;19.20;55.10;98253.81;10359247;28;20030;-22
2021/12/16 04:09:44;;;;;;;4.43;1.10;;;;;;;19.23;54.98;98253.88;10366953;28;20452;-22
2021/12/16 04:14:59;;;;;;;2.60;1.70;;;;;;;19.22;55.06;98257.22;10363968;28;20506;-22
2021/12/16 04:20:08;;;;;;;2.40;1.30;;;;;;;19.23;54.97;98258.94;10360524;28;20165;-23
2021/12/16 04:25:22;;;;;;;2.28;1.52;;;;;;;19.22;55.35;98263.19;10366350;28;20076;-22
2021/12/16 04:30:26;;;;;;;1.90;1.05;;;;;;;19.22;55.10;98268.25;10355029;28;20022;-22
2021/12/16 04:35:26;;;;;;;1.25;1.10;;;;;;;19.25;54.87;98270.03;10366500;28;20084;-23
2021/12/16 04:40:29;;;;;;;1.52;0.80;;;;;;;19.25;54.91;98273.41;10365856;28;20021;-22
2021/12/16 04:45:35;;;;;;;1.30;1.20;;;;;;;19.26;54.92;98281.88;10359405;28;20018;-23
2021/12/16 04:50:37;;;;;;;2.03;1.10;;;;;;;19.21;55.13;98298.69;10356792;28;20080;-22
2021/12/16 04:55:39;;;;;;;2.10;1.13;;;;;;;19.14;55.03;98291.72;10364316;28;20096;-22
2021/12/16 05:00:40;;;;;;;2.45;1.35;;;;;;;19.23;54.97;98300.44;10365133;28;20080;-23
2021/12/16 05:05:57;;;;;;;1.13;0.75;;;;;;;19.21;55.06;98306.31;10361242;28;20116;-22
2021/12/16 05:11:01;;;;;;;1.33;1.20;;;;;;;19.21;55.06;98301.22;10360181;28;20030;-22
2021/12/16 05:16:04;;;;;;;1.77;1.10;;;;;;;19.24;55.19;98301.31;10357187;28;20348;-22
2021/12/16 05:21:16;;;;;;;1.38;1.10;;;;;;;19.23;55.19;98299.56;10356077;28;20026;-22
2021/12/16 05:26:19;;;;;;;3.42;1.30;;;;;;;19.24;55.39;98303.84;10354262;28;20462;-22
2021/12/16 05:31:34;;;;;;;3.28;1.17;;;;;;;19.22;55.56;98302.94;10356709;28;20030;-22
2021/12/16 05:36:35;;;;;;;4.30;1.20;;;;;;;19.24;55.13;98298.78;10355899;28;20033;-22
2021/12/16 05:41:35;;;;;;;9.88;2.22;;;;;;;19.24;55.29;98299.63;10361960;28;20487;-29
2021/12/16 05:46:37;;;;;;;7.78;3.05;;;;;;;19.24;54.28;98301.31;10362370;28;20448;-22
2021/12/16 05:51:42;;;;;;;5.85;2.40;;;;;;;19.24;53.08;98294.53;10354684;28;20029;-23
2021/12/16 05:56:42;;;;;;;7.75;3.17;;;;;;;19.23;52.21;98289.41;10358327;28;20080;-23
2021/12/16 06:01:48;;;;;;;5.22;2.53;;;;;;;19.28;49.91;98318.31;10365924;28;20095;-23
2021/12/16 06:06:51;;;;;;;13.18;5.68;;;;;;;19.27;51.55;98322.53;10362313;28;20033;-23
2021/12/16 06:11:53;;;;;;;21.65;9.38;;;;;;;19.25;51.87;98326.72;10357203;28;20389;-23
2021/12/16 06:27:36;;;;;;;32.83;12.88;;;;;;;19.25;53.59;98356.38;10359861;28;20029;-23
2021/12/16 06:32:37;;;;;;;36.42;15.77;;;;;;;19.23;53.59;98348.69;10362098;28;20092;-23
2021/12/16 06:37:39;;;;;;;35.80;15.85;;;;;;;19.26;53.92;98355.53;10369681;28;20083;-23
2021/12/16 06:42:49;;;;;;;29.65;13.55;;;;;;;19.26;54.04;98355.53;10366999;28;20161;-23
2021/12/16 06:48:04;;;;;;;27.60;12.32;;;;;;;19.27;54.03;98352.16;10370107;28;20064;-23
2021/12/16 06:53:07;;;;;;;23.80;12.45;;;;;;;19.28;54.08;98348.81;10356129;28;20486;-23
2021/12/16 06:58:46;;;;;;;27.52;13.38;;;;;;;19.29;54.12;98353.06;10365607;28;20040;-22
2021/12/16 07:03:45;;;;;;;25.60;12.60;;;;;;;19.30;54.06;98357.31;10366184;28;20037;-23
2021/12/16 07:08:48;;;;;;;32.95;12.98;;;;;;;19.29;54.14;98353.06;10370694;28;20088;-23
2021/12/16 07:14:00;;;;;;;24.10;11.57;;;;;;;19.30;54.13;98348.00;10366999;28;20030;-23
2021/12/16 07:19:00;;;;;;;23.60;12.55;;;;;;;19.23;54.54;98356.31;10366874;28;20122;-23
2021/12/16 07:24:01;;;;;;;28.95;13.35;;;;;;;19.24;54.74;98364.81;10369715;28;20026;-23
2021/12/16 07:29:03;;;;;;;24.20;9.80;;;;;;;18.69;49.38;98361.72;10366731;28;20045;-23
2021/12/16 07:34:07;;;;;;;26.85;9.65;;;;;;;19.02;51.02;98365.06;10368685;28;20025;-23
2021/12/16 07:39:10;;;;;;;22.25;9.70;;;;;;;19.19;52.03;98374.81;10370372;28;20022;-23
2021/12/16 07:44:11;;;;;;;25.13;9.88;;;;;;;19.25;51.58;98374.13;10365766;28;20447;-23
2021/12/16 07:49:16;;;;;;;25.02;10.77;;;;;;;19.20;53.47;98391.81;10366965;28;20073;-23
2021/12/16 07:54:18;;;;;;;36.55;10.63;;;;;;;19.06;53.73;98371.94;10360608;28;20124;-22
2021/12/16 07:59:19;;;;;;;18.67;10.00;;;;;;;19.17;54.13;98380.69;10367422;28;20029;-23
2021/12/16 08:04:22;;;;;;;23.80;10.15;;;;;;;19.19;54.09;98391.75;10365784;28;20025;-23
2021/12/16 08:09:23;;;;;;;22.98;11.15;;;;;;;19.19;54.39;98396.84;10361805;28;20034;-23
2021/12/16 08:14:24;;;;;;;23.70;10.00;;;;;;;19.14;54.63;98405.97;10358126;28;20034;-23
2021/12/16 08:19:25;;;;;;;21.40;10.57;;;;;;;19.13;54.81;98396.66;10367099;28;20385;-23
2021/12/16 08:24:26;;;;;;;25.02;10.00;;;;;;;19.09;54.78;98387.25;10365541;28;20029;-23
2021/12/16 08:29:26;;;;;;;20.52;8.90;;;;;;;19.17;54.88;98390.84;10368351;28;20470;-23
2021/12/16 08:34:30;;;;;;;19.77;9.30;;;;;;;19.19;54.61;98371.44;10361878;28;20076;-23
2021/12/16 08:39:30;;;;;;;16.55;9.13;;;;;;;19.16;54.79;98384.88;10365944;28;20109;-23
2021/12/16 08:44:31;;;;;;;17.92;9.30;;;;;;;19.16;54.92;98394.22;10364736;28;20032;-23
2021/12/16 08:49:32;;;;;;;19.23;7.90;;;;;;;19.14;54.84;98409.41;10360926;28;20061;-23
2021/12/16 08:54:33;;;;;;;17.13;8.93;;;;;;;19.11;55.09;98418.63;10358341;28;20037;-23
2021/12/16 08:59:34;;;;;;;15.68;7.90;;;;;;;19.13;54.26;98428.00;10364041;28;20040;-23
2021/12/16 09:04:37;;;;;;;18.23;8.30;;;;;;;19.15;54.93;98439.03;10363597;28;20032;-23
2021/12/16 09:09:39;;;;;;;15.38;7.22;;;;;;;19.23;54.81;98436.69;10367281;28;20038;-23
2021/12/16 09:14:43;;;;;;;15.32;7.85;;;;;;;19.18;54.86;98423.03;10364758;28;20034;-23
2021/12/16 09:19:47;;;;;;;17.63;8.45;;;;;;;19.29;54.82;98431.78;10363016;28;20037;-23
2021/12/16 09:24:48;;;;;;;18.27;8.25;;;;;;;19.34;54.36;98430.22;10364149;28;20026;-23
2021/12/16 09:29:49;;;;;;;13.95;7.72;;;;;;;19.46;53.99;98455.91;10362301;28;20045;-23
2021/12/16 09:34:50;;;;;;;15.65;7.50;;;;;;;19.51;53.89;98469.59;10357296;28;20038;-22
2021/12/16 09:39:50;;;;;;;14.27;6.95;;;;;;;19.57;53.94;98474.78;10365166;28;20052;-22
2021/12/16 09:44:53;;;;;;;15.10;7.68;;;;;;;19.63;53.62;98480.00;10360404;28;20033;-23
2021/12/16 09:49:54;;;;;;;13.88;7.35;;;;;;;19.64;53.24;98472.44;10363016;28;20140;-22
2021/12/16 09:54:54;;;;;;;15.88;7.18;;;;;;;19.67;53.59;98471.66;10357117;28;20215;-22
2021/12/16 09:59:55;;;;;;;21.73;6.43;;;;;;;19.71;53.30;98455.63;10360061;28;20057;-22
2021/12/16 10:04:55;;;;;;;17.13;7.03;;;;;;;19.68;54.37;98447.97;10357000;28;20022;-23
2021/12/16 10:09:56;;;;;;;9.43;5.95;;;;;;;19.75;53.53;98435.41;10363987;28;20034;-22
2021/12/16 10:20:20;;;;;;;14.70;6.97;;;;;;;19.70;54.48;98415.81;10366017;28;20504;-22
2021/12/16 10:25:30;;;;;;;13.90;6.00;;;;;;;19.81;54.31;98421.97;10366759;28;20072;-22
2021/12/16 10:30:48;;;;;;;8.73;5.88;;;;;;;19.83;54.64;98415.25;10363192;28;20666;-22
2021/12/16 10:35:57;;;;;;;9.98;5.65;;;;;;;19.88;54.45;98418.75;10359941;28;20100;-22
2021/12/16 10:40:58;;;;;;;11.73;5.72;;;;;;;19.91;54.36;98421.38;10367378;28;20549;-22
2021/12/16 10:46:12;;;;;;;13.30;5.72;;;;;;;19.85;54.57;98409.34;10368254;28;20184;-22
2021/12/16 10:51:19;;;;;;;11.32;5.57;;;;;;;20.01;54.34;98429.19;10360750;28;20025;-22
2021/12/16 10:56:27;;;;;;;8.55;4.70;;;;;;;19.98;54.36;98434.22;10357450;28;20030;-22
2021/12/16 11:01:34;;;;;;;11.15;5.18;;;;;;;19.98;54.26;98430.81;10366972;28;20037;-22
2021/12/16 11:06:38;;;;;;;12.75;5.65;;;;;;;19.96;54.65;98424.84;10368803;28;20045;-22
2021/12/16 11:11:39;;;;;;;9.77;4.50;;;;;;;19.99;54.19;98429.97;10370453;28;20156;-22
2021/12/16 11:16:39;;;;;;;10.90;5.10;;;;;;;19.95;54.32;98423.13;10369459;28;20095;-22
2021/12/16 11:21:40;;;;;;;9.70;5.53;;;;;;;19.94;54.44;98426.50;10368867;28;20120;-22
2021/12/16 11:26:43;;;;;;;8.48;5.28;;;;;;;19.92;54.71;98425.63;10366741;28;20022;-22
2021/12/16 11:31:48;;;;;;;11.00;4.97;;;;;;;19.84;53.94;98411.88;10369805;28;20692;-23
2021/12/16 11:36:53;;;;;;;13.73;5.13;;;;;;;19.88;54.30;98421.28;10357023;28;20132;-22
2021/12/16 11:42:00;;;;;;;8.48;4.05;;;;;;;19.93;54.28;98414.63;10368522;28;20054;-22
2021/12/16 11:47:10;;;;;;;8.52;4.80;;;;;;;19.92;54.61;98402.75;10370939;28;20113;-22
2021/12/16 11:52:16;;;;;;;9.40;4.85;;;;;;;19.85;54.62;98400.91;10355719;28;20058;-22
2021/12/16 11:57:33;;;;;;;8.65;5.18;;;;;;;19.87;54.79;98409.41;10368026;28;20037;-22
2021/12/16 12:02:38;;;;;;;9.05;4.38;;;;;;;19.91;54.51;98416.28;10364795;28;20041;-22
2021/12/16 12:07:57;;;;;;;8.43;4.78;;;;;;;19.89;54.45;98402.66;10360544;28;20040;-22
2021/12/16 12:12:59;;;;;;;7.65;4.55;;;;;;;19.86;54.45;98420.41;10369026;28;20042;-22
2021/12/16 12:17:59;;;;;;;8.70;4.93;;;;;;;19.88;54.93;98413.66;10366653;28;20029;-22
2021/12/16 12:23:01;;;;;;;7.65;4.38;;;;;;;19.91;54.58;98431.53;10366077;28;20025;-22
2021/12/16 12:28:01;;;;;;;14.90;5.60;;;;;;;19.92;54.90;98429.00;10364472;28;20034;-22
2021/12/16 12:33:02;;;;;;;6.03;3.67;;;;;;;19.95;53.94;98420.59;10366757;28;20053;-22
2021/12/16 12:38:02;;;;;;;7.75;3.60;;;;;;;19.80;52.83;98412.63;10359138;28;20296;-22
2021/12/16 12:43:05;;;;;;;10.03;4.60;;;;;;;19.92;54.26;98407.84;10360416;28;20041;-22
2021/12/16 12:48:11;;;;;;;7.32;4.57;;;;;;;19.92;54.67;98397.66;10372105;28;20284;-22
2021/12/16 12:53:13;;;;;;;10.52;4.53;;;;;;;19.93;54.47;98391.75;10353240;28;20053;-22
2021/12/16 12:58:19;;;;;;;10.15;4.70;;;;;;;19.94;54.74;98390.91;10366088;28;20072;-22
2021/12/16 13:03:29;;;;;;;7.77;4.37;;;;;;;19.93;54.49;98389.19;10366859;28;20055;-22
2021/12/16 13:08:33;;;;;;;8.93;4.28;;;;;;;19.58;49.30;98401.16;10366668;28;20034;-22
2021/12/16 13:13:45;;;;;;;10.82;3.85;;;;;;;19.74;52.30;98392.16;10363507;28;20037;-22
2021/12/16 13:29:31;;;;;;;13.07;4.20;;;;;;;19.90;53.51;98384.03;10365030;28;20091;-22
2021/12/16 13:34:57;;;;;;;11.35;3.83;;;;;;;19.93;53.95;98384.13;10363715;28;20061;-22
2021/12/16 13:40:20;;;;;;;10.10;3.85;;;;;;;19.94;54.47;98383.28;10366140;28;20379;-22
2021/12/16 13:45:29;;;;;;;6.25;3.50;;;;;;;19.94;54.50;98386.66;10362893;28;20026;-22
2021/12/16 14:07:14;;;;;;;10.98;4.18;;;;;;;19.95;54.65;98398.59;10337959;28;20077;-22
2021/12/16 14:18:03;;;;;;;9.40;3.75;;;;;;;20.01;54.58;98388.50;10306933;28;20042;-22
2021/12/16 14:23:18;;;;;;;7.60;3.53;;;;;;;20.01;54.48;98397.84;10361290;28;20084;-23
2021/12/16 14:49:32;;;;;;;11.23;4.22;;;;;;;19.95;54.20;98402.78;10360828;28;20062;-22
2021/12/16 14:54:34;;;;;;;8.43;3.15;;;;;;;19.98;54.22;98402.84;10355576;28;20117;-22
2021/12/16 14:59:35;;;;;;;9.57;3.80;;;;;;;19.97;54.01;98406.22;10367284;28;20116;-22
2021/12/16 15:04:35;;;;;;;11.65;6.20;;;;;;;19.99;54.06;98407.09;10366177;28;20486;-22
2021/12/16 15:09:39;;;;;;;14.73;6.40;;;;;;;19.67;52.28;98403.88;10371316;28;20194;-22
2021/12/16 15:46:50;;;;;;;28.52;11.73;;;;;;;20.00;54.23;98411.38;10365347;28;20482;-22
2021/12/16 15:51:53;;;;;;;29.00;10.70;;;;;;;19.88;54.24;98419.63;10355694;28;20033;-22
2021/12/16 15:56:54;;;;;;;22.75;11.48;;;;;;;19.90;54.74;98414.53;10369218;28;20034;-22
2021/12/16 16:01:55;;;;;;;20.25;9.52;;;;;;;20.03;53.46;98424.16;10373139;28;20379;-22
2021/12/16 16:07:00;;;;;;;31.02;10.88;;;;;;;20.04;54.54;98436.03;10363249;28;20084;-22
2021/12/16 16:12:01;;;;;;;28.27;11.13;;;;;;;20.02;54.91;98442.78;10367973;28;20041;-22
2021/12/16 16:17:11;;;;;;;28.55;10.35;;;;;;;20.00;54.99;98437.66;10364565;28;20030;-22
2021/12/16 16:22:12;;;;;;;22.15;10.40;;;;;;;19.98;54.93;98429.16;10363018;28;20030;-22
2021/12/16 16:27:19;;;;;;;26.60;10.93;;;;;;;20.01;55.57;98433.44;10360882;28;20421;-24
2021/12/16 16:32:20;;;;;;;21.70;10.68;;;;;;;20.02;55.12;98419.91;10355267;28;20031;-22
2021/12/16 16:37:30;;;;;;;20.42;10.23;;;;;;;20.05;54.12;98410.69;10359919;28;20038;-22
2021/12/16 16:42:34;;;;;;;20.42;11.02;;;;;;;20.05;55.69;98412.34;10356485;28;20053;-23
2021/12/16 16:47:46;;;;;;;20.77;10.98;;;;;;;20.06;55.40;98421.69;10353611;28;20057;-22
2021/12/16 16:52:50;;;;;;;22.70;11.27;;;;;;;20.07;55.02;98431.91;10358296;28;20034;-22
2021/12/16 16:57:57;;;;;;;34.55;10.95;;;;;;;20.09;55.25;98437.03;10353880;28;20060;-22
2021/12/16 17:03:07;;;;;;;19.15;9.85;;;;;;;20.10;55.00;98433.66;10363954;28;20042;-22
2021/12/16 17:08:08;;;;;;;25.90;8.45;;;;;;;20.14;54.90;98432.88;10355493;28;20042;-23
2021/12/16 17:13:22;;;;;;;19.50;8.15;;;;;;;19.81;53.51;98439.75;10359276;28;20038;-23
2021/12/16 17:18:26;;;;;;;19.20;8.50;;;;;;;20.03;53.42;98439.41;10352905;28;20331;-23
2021/12/16 17:23:32;;;;;;;21.10;8.57;;;;;;;20.09;54.35;98452.31;10355761;28;20037;-23
2021/12/16 17:28:33;;;;;;;17.00;7.57;;;;;;;20.09;54.13;98447.22;10355865;28;20037;-23
2021/12/16 17:33:34;;;;;;;18.52;8.13;;;;;;;20.11;54.47;98438.75;10356987;28;20070;-23
2021/12/16 17:38:38;;;;;;;17.05;7.68;;;;;;;20.11;54.16;98440.47;10358678;28;20037;-23
2021/12/16 17:43:42;;;;;;;19.50;8.07;;;;;;;20.13;54.54;98434.59;10350078;28;20029;-22
2021/12/16 17:48:48;;;;;;;17.83;8.27;;;;;;;20.14;54.58;98436.31;10363006;28;20069;-23
2021/12/16 17:53:59;;;;;;;16.48;7.13;;;;;;;20.13;54.58;98432.06;10361464;28;20505;-22
2021/12/16 17:59:04;;;;;;;13.80;6.72;;;;;;;20.17;54.28;98431.28;10356846;28;20522;-23
2021/12/16 18:04:08;;;;;;;12.02;6.63;;;;;;;20.15;54.30;98419.34;10363551;28;20034;-23
2021/12/16 18:09:20;;;;;;;15.00;7.38;;;;;;;20.14;54.45;98425.25;10359408;28;20037;-22
2021/12/16 18:14:27;;;;;;;15.68;6.10;;;;;;;20.14;54.59;98415.09;10370264;28;20033;-23
2021/12/16 18:19:56;;;;;;;20.30;7.97;;;;;;;20.13;54.55;98418.47;10359518;28;20064;-23
2021/12/16 18:25:09;;;;;;;18.48;7.47;;;;;;;20.13;54.82;98428.63;10357373;28;20042;-23
2021/12/16 18:30:16;;;;;;;21.95;7.70;;;;;;;20.18;56.06;98427.06;10361695;28;20406;-23
2021/12/16 18:35:26;;;;;;;18.25;6.97;;;;;;;20.16;54.90;98408.34;10362714;28;20063;-20
2021/12/16 18:40:27;;;;;;;18.00;6.18;;;;;;;20.21;55.29;98407.63;10370061;28;20033;-20
2021/12/16 18:45:29;;;;;;;20.42;5.60;;;;;;;20.25;54.18;98419.56;10367588;28;20030;-20
2021/12/16 18:56:05;;;;;;;15.90;6.82;;;;;;;20.22;56.37;98421.19;10341837;28;20509;-21
2021/12/16 19:01:20;;;;;;;22.83;6.30;;;;;;;20.08;56.55;98427.69;10360073;28;20084;-22
2021/12/16 19:06:24;;;;;;;18.40;6.47;;;;;;;20.19;55.68;98438.94;10367910;28;20292;-22
2021/12/16 19:11:28;;;;;;;21.63;6.72;;;;;;;20.07;54.41;98425.94;10376131;28;20040;-23
2021/12/16 19:16:29;;;;;;;23.23;5.93;;;;;;;19.99;55.41;98402.03;10366890;28;20026;-22
2021/12/16 19:21:30;;;;;;;15.77;5.32;;;;;;;20.16;55.17;98408.34;10362994;28;20529;-22
2021/12/16 19:26:31;;;;;;;16.75;6.20;;;;;;;20.13;55.30;98418.47;10370294;28;20029;-22
2021/12/16 19:31:33;;;;;;;17.95;5.38;;;;;;;20.22;54.98;98403.38;10367676;28;20117;-24
2021/12/16 19:36:34;;;;;;;12.60;5.30;;;;;;;20.23;54.61;98405.09;10362572;28;20033;-22
2021/12/16 19:41:36;;;;;;;12.68;6.82;;;;;;;20.18;54.79;98402.47;10370314;28;20034;-21
2021/12/16 19:46:37;;;;;;;11.45;5.15;;;;;;;20.11;54.76;98400.63;10365019;28;20030;-22
2021/12/16 19:51:38;;;;;;;14.50;5.70;;;;;;;20.04;55.82;98397.91;10361883;28;20119;-22
2021/12/16 19:56:41;;;;;;;11.55;5.85;;;;;;;19.98;55.92;98382.50;10363847;28;20081;-22
2021/12/16 20:01:44;;;;;;;16.15;6.70;;;;;;;19.97;56.03;98385.88;10364681;28;20514;-23
2021/12/16 20:06:49;;;;;;;10.38;5.47;;;;;;;19.94;55.91;98390.91;10362716;28;20034;-22
2021/12/16 20:11:58;;;;;;;17.17;6.15;;;;;;;19.94;55.85;98388.38;10363105;28;20091;-23
2021/12/16 20:17:02;;;;;;;12.52;5.40;;;;;;;19.93;55.42;98391.75;10363005;28;20026;-22
2021/12/16 20:22:10;;;;;;;14.68;5.18;;;;;;;19.92;55.84;98405.28;10361631;28;20041;-22
2021/12/16 20:27:25;;;;;;;13.85;6.18;;;;;;;19.95;55.49;98407.88;10361659;28;20033;-22
2021/12/16 20:32:30;;;;;;;9.27;4.78;;;;;;;19.93;55.36;98401.91;10363578;28;20581;-24
2021/12/16 20:37:31;;;;;;;9.85;5.00;;;;;;;19.91;55.24;98408.66;10353484;28;20041;-23
2021/12/16 20:42:40;;;;;;;8.32;4.57;;;;;;;19.89;55.61;98416.25;10360147;28;20041;-22
2021/12/16 20:47:41;;;;;;;9.63;5.50;;;;;;;19.88;55.21;98404.38;10362748;28;20030;-22
2021/12/16 20:52:42;;;;;;;7.38;3.75;;;;;;;19.88;55.50;98401.81;10347555;28;20037;-23
2021/12/16 20:57:46;;;;;;;13.88;4.68;;;;;;;19.89;55.20;98398.44;10363166;28;20034;-22
2021/12/16 21:02:47;;;;;;;11.13;4.57;;;;;;;19.88;55.86;98391.66;10362110;28;20038;-23
2021/12/16 21:07:48;;;;;;;8.57;4.80;;;;;;;19.87;55.11;98391.59;10361244;28;20441;-22
2021/12/16 21:12:48;;;;;;;10.52;4.18;;;;;;;19.84;55.32;98389.00;10363198;28;20033;-22
2021/12/16 21:17:49;;;;;;;9.40;4.60;;;;;;;19.84;55.31;98396.63;10362875;28;20022;-22
2021/12/16 21:22:52;;;;;;;7.00;3.58;;;;;;;19.82;55.46;98375.38;10359423;28;20046;-23
2021/12/16 21:27:55;;;;;;;8.52;3.55;;;;;;;19.83;55.14;98369.50;10364369;28;20038;-23
2021/12/16 21:32:56;;;;;;;9.32;3.75;;;;;;;19.86;55.07;98370.41;10365812;28;20061;-22
2021/12/16 21:38:00;;;;;;;6.22;3.78;;;;;;;19.86;54.90;98369.56;10364936;28;20040;-22
2021/12/16 21:43:00;;;;;;;7.05;3.35;;;;;;;19.86;55.14;98372.09;10364124;28;20088;-22
2021/12/16 21:48:01;;;;;;;6.82;3.70;;;;;;;19.83;55.17;98361.88;10367378;28;20100;-22
2021/12/16 21:53:04;;;;;;;7.00;3.85;;;;;;;19.81;55.11;98374.56;10351238;28;20049;-22
2021/12/16 21:58:08;;;;;;;7.75;4.72;;;;;;;19.81;54.89;98373.69;10360750;28;20505;-22
2021/12/16 22:03:14;;;;;;;6.32;3.42;;;;;;;19.78;55.36;98384.66;10364796;28;20030;-22
2021/12/16 22:08:14;;;;;;;6.70;3.92;;;;;;;19.78;55.34;98383.78;10363566;28;20625;-22
2021/12/16 22:13:15;;;;;;;10.97;4.43;;;;;;;19.75;55.48;98386.28;10365996;28;20046;-22
2021/12/16 22:18:19;;;;;;;8.85;3.90;;;;;;;19.76;55.50;98380.38;10364185;28;20133;-22
2021/12/16 22:23:23;;;;;;;6.80;3.45;;;;;;;19.76;55.45;98381.22;10362449;28;20034;-22
2021/12/16 22:28:24;;;;;;;8.73;4.00;;;;;;;19.76;55.14;98385.44;10362215;28;20453;-22
2021/12/16 22:33:27;;;;;;;4.87;3.50;;;;;;;19.78;54.97;98371.09;10363277;28;20037;-23
2021/12/16 22:38:29;;;;;;;8.35;4.50;;;;;;;19.79;54.90;98385.50;10363900;28;20757;-22
2021/12/16 22:43:30;;;;;;;8.63;3.58;;;;;;;19.79;54.96;98376.22;10363245;28;20057;-22
2021/12/16 22:48:40;;;;;;;7.57;2.95;;;;;;;19.78;54.94;98371.09;10362065;28;20064;-22
2021/12/16 22:53:41;;;;;;;8.02;3.13;;;;;;;19.79;55.17;98381.28;10353332;28;20034;-22
2021/12/16 22:58:41;;;;;;;6.03;3.00;;;;;;;19.78;54.89;98396.50;10363669;28;20052;-23
2021/12/16 23:03:42;;;;;;;10.47;3.77;;;;;;;19.77;55.08;98392.25;10361879;28;20048;-22
2021/12/16 23:08:45;;;;;;;7.18;3.53;;;;;;;19.78;55.29;98402.47;10365228;28;20296;-22
2021/12/16 23:13:49;;;;;;;6.63;3.20;;;;;;;19.76;55.06;98409.16;10361935;28;20034;-22
2021/12/16 23:23:59;;;;;;;7.80;3.35;;;;;;;19.79;55.09;98409.25;10366158;28;20076;-22
2021/12/16 23:29:00;;;;;;;7.40;3.33;;;;;;;19.71;54.75;98392.97;10367472;28;20034;-23
2021/12/16 23:34:04;;;;;;;7.63;4.32;;;;;;;19.78;55.13;98399.03;10369077;28;20065;-23
2021/12/16 23:39:08;;;;;;;5.25;2.90;;;;;;;19.75;55.17;98396.44;10369664;28;20552;-22
2021/12/16 23:54:34;;;;;;;9.00;3.53;;;;;;;19.74;55.14;98390.50;10359316;28;20646;-23
2021/12/16 23:59:37;;;;;;;7.68;3.17;;;;;;;19.73;55.02;98385.38;10366140;28;20049;-22
